createdAt,value
2022-10-11T00:00:57.576Z,7.80
2022-10-11T00:03:25.236Z,7.90
2022-10-11T00:05:54.431Z,7.90
2022-10-11T00:08:22.657Z,7.90
2022-10-11T00:11:07.851Z,7.90
2022-10-11T00:13:36.025Z,7.90
2022-10-11T00:16:11.553Z,7.70
2022-10-11T00:18:39.925Z,7.70
2022-10-11T00:21:12.100Z,7.60
2022-10-11T00:23:41.814Z,7.60
2022-10-11T00:26:11.111Z,7.60
2022-10-11T00:28:39.492Z,7.70
2022-10-11T00:31:10.438Z,7.70
2022-10-11T00:33:38.164Z,7.70
2022-10-11T00:36:08.093Z,7.70
2022-10-11T00:38:36.389Z,7.70
2022-10-11T00:41:04.135Z,7.70
2022-10-11T00:43:32.961Z,7.70
2022-10-11T00:46:26.029Z,7.70
2022-10-11T00:49:20.081Z,7.70
2022-10-11T00:52:02.041Z,7.70
2022-10-11T00:54:35.334Z,7.60
2022-10-11T00:57:08.540Z,7.60
2022-10-11T00:59:44.357Z,7.40
2022-10-11T01:02:14.632Z,7.30
2022-10-11T01:04:43.170Z,7.30
2022-10-11T01:07:11.856Z,7.40
2022-10-11T01:09:39.452Z,7.40
2022-10-11T01:12:19.284Z,7.30
2022-10-11T01:14:53.244Z,7.30
2022-10-11T01:17:27.830Z,7.20
2022-10-11T01:20:35.379Z,7.10
2022-10-11T01:24:01.086Z,7.10
2022-10-11T01:27:02.152Z,7.00
2022-10-11T01:29:57.596Z,6.90
2022-10-11T01:32:34.609Z,7.00
2022-10-11T01:35:21.726Z,7.00
2022-10-11T01:38:01.918Z,7.10
2022-10-11T01:40:39.832Z,7.20
2022-10-11T01:43:08.827Z,7.30
2022-10-11T01:45:37.426Z,7.30
2022-10-11T01:48:13.914Z,7.40
2022-10-11T01:50:46.885Z,7.50
2022-10-11T01:54:06.640Z,7.50
2022-10-11T01:57:21.895Z,7.50
2022-10-11T02:00:07.785Z,7.60
2022-10-11T02:03:01.525Z,7.70
2022-10-11T02:06:12.381Z,7.70
2022-10-11T02:09:04.480Z,7.70
2022-10-11T02:11:36.888Z,7.80
2022-10-11T02:14:19.965Z,7.90
2022-10-11T02:17:17.542Z,7.80
2022-10-11T02:19:50.767Z,7.90
2022-10-11T02:22:25.162Z,7.80
2022-10-11T02:24:59.308Z,7.80
2022-10-11T02:27:31.038Z,7.80
2022-10-11T02:30:02.804Z,7.80
2022-10-11T02:32:31.451Z,7.60
2022-10-11T02:35:02.600Z,7.50
2022-10-11T02:37:43.080Z,7.40
2022-10-11T02:40:17.474Z,7.30
2022-10-11T02:43:37.046Z,7.20
2022-10-11T02:46:09.296Z,7.30
2022-10-11T02:48:38.106Z,7.30
2022-10-11T02:51:06.265Z,7.30
2022-10-11T02:53:34.009Z,7.20
2022-10-11T02:56:01.880Z,7.20
2022-10-11T02:58:29.692Z,7.10
2022-10-11T03:00:57.285Z,7.10
2022-10-11T03:03:24.883Z,7.20
2022-10-11T03:06:00.050Z,7.20
2022-10-11T03:08:28.228Z,7.20
2022-10-11T03:10:56.081Z,7.20
2022-10-11T03:13:23.748Z,7.20
2022-10-11T03:16:02.848Z,7.20
2022-10-11T03:18:31.373Z,7.20
2022-10-11T03:20:59.187Z,7.20
2022-10-11T03:23:26.809Z,7.30
2022-10-11T03:25:56.746Z,7.30
2022-10-11T03:28:24.647Z,7.30
2022-10-11T03:31:01.902Z,7.30
2022-10-11T03:33:34.552Z,7.20
2022-10-11T03:36:07.560Z,7.20
2022-10-11T03:38:35.658Z,7.10
2022-10-11T03:41:03.195Z,7.10
2022-10-11T03:43:31.264Z,7.00
2022-10-11T03:45:58.904Z,7.00
2022-10-11T03:48:29.729Z,6.90
2022-10-11T03:51:00.402Z,6.80
2022-10-11T03:53:28.195Z,6.80
2022-10-11T03:55:56.587Z,6.60
2022-10-11T03:58:24.657Z,6.50
2022-10-11T04:00:53.904Z,6.40
2022-10-11T04:03:21.793Z,6.40
2022-10-11T04:05:49.639Z,6.40
2022-10-11T04:08:17.828Z,6.40
2022-10-11T04:10:45.468Z,6.40
2022-10-11T04:13:15.367Z,6.30
2022-10-11T04:15:43.140Z,6.40
2022-10-11T04:18:12.024Z,6.40
2022-10-11T04:20:39.634Z,6.50
2022-10-11T04:23:07.471Z,6.40
2022-10-11T04:25:35.139Z,6.40
2022-10-11T04:28:03.105Z,6.40
2022-10-11T04:30:30.965Z,6.50
2022-10-11T04:32:58.580Z,6.40
2022-10-11T04:35:26.176Z,6.40
2022-10-11T04:37:56.606Z,6.40
2022-10-11T04:40:24.432Z,6.50
2022-10-11T04:42:53.683Z,6.50
2022-10-11T04:45:21.830Z,6.40
2022-10-11T04:47:49.778Z,6.40
2022-10-11T04:50:17.793Z,6.10
2022-10-11T04:52:45.477Z,6.00
2022-10-11T04:55:13.173Z,5.80
2022-10-11T04:57:42.161Z,6.00
2022-10-11T05:00:10.846Z,6.10
2022-10-11T05:02:38.507Z,6.00
2022-10-11T05:05:06.992Z,5.90
2022-10-11T05:07:34.596Z,5.90
2022-10-11T05:10:02.689Z,5.90
2022-10-11T05:12:30.348Z,5.90
2022-10-11T05:14:58.183Z,6.00
2022-10-11T05:17:25.941Z,6.00
2022-10-11T05:19:53.516Z,5.70
2022-10-11T05:22:21.159Z,5.70
2022-10-11T05:24:48.761Z,5.70
2022-10-11T05:27:16.379Z,5.80
2022-10-11T05:29:44.200Z,5.80
2022-10-11T05:32:11.813Z,5.90
2022-10-11T05:34:39.424Z,5.80
2022-10-11T05:37:07.149Z,5.70
2022-10-11T05:39:37.145Z,5.50
2022-10-11T05:42:09.580Z,5.60
2022-10-11T05:44:37.704Z,5.50
2022-10-11T05:47:05.919Z,5.50
2022-10-11T05:49:33.581Z,5.60
2022-10-11T05:52:03.775Z,5.70
2022-10-11T05:54:39.009Z,5.80
2022-10-11T05:57:06.672Z,5.70
2022-10-11T05:59:35.581Z,5.70
2022-10-11T06:02:03.508Z,5.80
2022-10-11T06:04:31.278Z,5.90
2022-10-11T06:06:58.853Z,5.90
2022-10-11T06:09:26.515Z,6.00
2022-10-11T06:11:54.159Z,6.00
2022-10-11T06:14:21.797Z,6.00
2022-10-11T06:16:49.427Z,6.00
2022-10-11T06:19:20.141Z,6.00
2022-10-11T06:21:48.483Z,6.00
2022-10-11T06:24:19.419Z,6.00
2022-10-11T06:26:49.369Z,6.00
2022-10-11T06:29:17.083Z,6.00
2022-10-11T06:31:44.873Z,6.00
2022-10-11T06:34:12.528Z,6.00
2022-10-11T06:36:40.144Z,6.10
2022-10-11T06:39:07.806Z,6.10
2022-10-11T06:41:35.365Z,6.10
2022-10-11T06:44:03.010Z,6.20
2022-10-11T06:46:33.179Z,6.30
2022-10-11T06:49:01.110Z,6.30
2022-10-11T06:51:31.513Z,6.40
2022-10-11T06:54:01.767Z,6.40
2022-10-11T06:56:31.545Z,6.40
2022-10-11T06:59:00.061Z,6.40
2022-10-11T07:01:28.110Z,6.40
2022-10-11T07:03:58.124Z,6.40
2022-10-11T07:06:29.371Z,6.40
2022-10-11T07:08:57.488Z,6.40
2022-10-11T07:11:27.639Z,6.40
2022-10-11T07:14:01.441Z,6.50
2022-10-11T07:16:29.464Z,6.50
2022-10-11T07:19:01.122Z,6.60
2022-10-11T07:21:31.405Z,6.70
2022-10-11T07:23:59.908Z,6.60
2022-10-11T07:26:31.348Z,6.70
2022-10-11T07:29:02.073Z,6.70
2022-10-11T07:31:29.728Z,6.80
2022-10-11T07:33:57.545Z,6.80
2022-10-11T07:36:25.697Z,6.90
2022-10-11T07:38:53.391Z,7.00
2022-10-11T07:41:21.116Z,7.10
2022-10-11T07:43:49.888Z,7.10
2022-10-11T07:46:18.779Z,7.30
2022-10-11T07:48:46.607Z,7.40
2022-10-11T07:51:22.815Z,7.50
2022-10-11T07:53:54.386Z,7.60
2022-10-11T07:56:27.003Z,7.70
2022-10-11T07:59:00.949Z,8.00
2022-10-11T08:01:31.307Z,8.20
2022-10-11T08:03:59.767Z,8.30
2022-10-11T08:06:32.778Z,8.40
2022-10-11T08:09:01.315Z,8.60
2022-10-11T08:11:34.045Z,8.70
2022-10-11T08:14:06.286Z,8.80
2022-10-11T08:16:35.010Z,9.00
2022-10-11T08:19:03.371Z,9.10
2022-10-11T08:21:31.623Z,9.20
2022-10-11T08:23:59.535Z,9.30
2022-10-11T08:26:27.120Z,9.60
2022-10-11T08:28:54.792Z,9.60
2022-10-11T08:31:22.461Z,9.70
2022-10-11T08:33:50.185Z,9.90
2022-10-11T08:36:17.766Z,10.00
2022-10-11T08:38:45.486Z,10.20
2022-10-11T08:41:50.960Z,10.30
2022-10-11T08:47:41.115Z,10.60
2022-10-11T08:50:20.526Z,10.70
2022-10-11T08:52:53.459Z,10.80
2022-10-11T08:55:44.969Z,10.80
2022-10-11T08:58:18.763Z,11.00
2022-10-11T09:00:48.672Z,11.10
2022-10-11T09:03:45.988Z,11.20
2022-10-11T09:06:31.618Z,11.30
2022-10-11T09:09:29.407Z,11.40
2022-10-11T09:12:40.828Z,11.50
2022-10-11T09:15:47.535Z,11.60
2022-10-11T09:19:04.813Z,11.70
2022-10-11T09:21:49.471Z,11.80
2022-10-11T09:24:36.879Z,12.00
2022-10-11T09:28:01.334Z,12.10
2022-10-11T09:30:24.624Z,12.20
2022-10-11T09:33:00.115Z,12.30
2022-10-11T09:35:33.204Z,12.40
2022-10-11T09:38:32.655Z,12.60
2022-10-11T09:41:10.282Z,12.60
2022-10-11T09:43:38.203Z,12.60
2022-10-11T09:46:25.069Z,12.70
2022-10-11T09:48:56.768Z,12.70
2022-10-11T09:51:27.330Z,12.80
2022-10-11T09:54:02.311Z,12.90
2022-10-11T09:56:32.045Z,13.00
2022-10-11T09:59:29.563Z,13.10
2022-10-11T10:02:19.556Z,13.40
2022-10-11T10:05:10.522Z,13.50
2022-10-11T10:07:43.666Z,13.60
2022-10-11T10:10:44.122Z,13.50
2022-10-11T10:13:24.099Z,13.60
2022-10-11T10:15:56.155Z,13.60
2022-10-11T10:18:32.611Z,13.70
2022-10-11T10:21:01.380Z,13.70
2022-10-11T10:23:30.799Z,13.70
2022-10-11T10:26:24.058Z,13.70
2022-10-11T10:29:03.729Z,13.70
2022-10-11T10:31:55.264Z,13.80
2022-10-11T10:34:37.452Z,13.80
2022-10-11T10:37:44.222Z,13.90
2022-10-11T10:40:48.472Z,13.90
2022-10-11T10:43:23.691Z,14.10
2022-10-11T10:46:20.996Z,14.10
2022-10-11T10:52:56.687Z,14.40
2022-10-11T10:55:51.507Z,14.60
2022-10-11T10:58:59.117Z,14.90
2022-10-11T11:01:33.610Z,15.30
2022-10-11T11:04:07.573Z,15.60
2022-10-11T11:06:44.058Z,15.80
2022-10-11T11:09:45.970Z,16.10
2022-10-11T11:12:47.455Z,16.20
2022-10-11T11:15:58.988Z,15.90
2022-10-11T11:18:52.207Z,15.80
2022-10-11T11:21:43.474Z,15.60
2022-10-11T11:24:40.490Z,15.50
2022-10-11T11:27:48.615Z,15.60
2022-10-11T11:31:08.910Z,15.60
2022-10-11T11:33:49.207Z,15.60
2022-10-11T11:36:28.098Z,15.60
2022-10-11T11:39:03.731Z,15.60
2022-10-11T11:41:42.855Z,15.70
2022-10-11T11:44:31.210Z,15.60
2022-10-11T11:47:24.943Z,15.50
2022-10-11T11:50:05.206Z,15.30
2022-10-11T11:52:47.369Z,15.10
2022-10-11T11:55:24.215Z,14.80
2022-10-11T11:58:30.369Z,14.70
2022-10-11T12:01:31.602Z,14.60
2022-10-11T12:04:11.154Z,14.70
2022-10-11T12:06:52.421Z,14.90
2022-10-11T12:09:27.589Z,15.00
2022-10-11T12:12:29.072Z,15.20
2022-10-11T12:15:08.527Z,15.30
2022-10-11T12:17:55.789Z,15.40
2022-10-11T12:20:32.361Z,15.40
2022-10-11T12:23:30.158Z,15.50
2022-10-11T12:26:28.885Z,15.50
2022-10-11T12:29:18.348Z,15.60
2022-10-11T12:32:11.352Z,15.50
2022-10-11T12:34:42.739Z,15.60
2022-10-11T12:37:25.285Z,15.40
2022-10-11T12:39:59.590Z,15.50
2022-10-11T12:42:31.069Z,15.60
2022-10-11T12:45:14.015Z,15.70
2022-10-11T12:48:16.615Z,15.70
2022-10-11T12:51:27.418Z,15.80
2022-10-11T12:54:36.773Z,15.90
2022-10-11T12:57:26.586Z,15.90
2022-10-11T12:59:54.352Z,16.00
2022-10-11T13:02:40.068Z,16.00
2022-10-11T13:05:44.971Z,16.10
2022-10-11T13:08:31.627Z,16.00
2022-10-11T13:11:07.551Z,16.10
2022-10-11T13:13:44.714Z,16.20
2022-10-11T13:16:20.637Z,16.40
2022-10-11T13:18:53.127Z,16.50
2022-10-11T13:21:36.842Z,16.60
2022-10-11T13:24:16.000Z,16.70
2022-10-11T13:26:45.954Z,16.70
2022-10-11T13:29:41.284Z,16.80
2022-10-11T13:32:20.740Z,16.90
2022-10-11T13:34:57.563Z,16.90
2022-10-11T13:37:28.362Z,17.00
2022-10-11T13:39:58.004Z,17.10
2022-10-11T13:42:31.935Z,17.00
2022-10-11T13:45:01.239Z,17.00
2022-10-11T13:47:30.538Z,16.80
2022-10-11T13:50:09.277Z,16.90
2022-10-11T13:52:48.830Z,16.90
2022-10-11T13:55:51.811Z,16.90
2022-10-11T13:58:29.134Z,16.90
2022-10-11T14:01:04.160Z,16.90
2022-10-11T14:03:41.374Z,16.90
2022-10-11T14:06:09.719Z,17.10
2022-10-11T14:08:41.631Z,17.20
2022-10-11T14:11:12.831Z,17.20
2022-10-11T14:13:42.725Z,17.40
2022-10-11T14:16:12.745Z,17.30
2022-10-11T14:18:58.767Z,17.50
2022-10-11T14:21:45.908Z,17.50
2022-10-11T14:24:16.303Z,17.60
2022-10-11T14:26:53.870Z,17.80
2022-10-11T14:29:27.595Z,17.70
2022-10-11T14:32:20.772Z,17.70
2022-10-11T14:34:49.728Z,17.60
2022-10-11T14:37:18.122Z,17.50
2022-10-11T14:39:47.688Z,17.20
2022-10-11T14:42:15.922Z,17.00
2022-10-11T14:44:43.523Z,16.80
2022-10-11T14:47:17.088Z,16.70
2022-10-11T14:49:44.789Z,16.40
2022-10-11T14:52:13.994Z,16.40
2022-10-11T14:54:42.038Z,16.20
2022-10-11T14:57:13.120Z,16.10
2022-10-11T14:59:40.747Z,15.90
2022-10-11T15:02:11.488Z,15.80
2022-10-11T15:04:39.142Z,15.80
2022-10-11T15:07:06.894Z,15.80
2022-10-11T15:09:34.545Z,15.80
2022-10-11T15:12:02.150Z,15.80
2022-10-11T15:14:29.750Z,15.90
2022-10-11T15:16:57.289Z,15.90
2022-10-11T15:19:25.709Z,15.90
2022-10-11T15:21:53.455Z,16.10
2022-10-11T15:24:21.587Z,16.10
2022-10-11T15:26:49.543Z,16.10
2022-10-11T15:29:17.995Z,16.00
2022-10-11T15:31:46.634Z,16.00
2022-10-11T15:34:14.386Z,16.00
2022-10-11T15:36:42.431Z,15.90
2022-10-11T15:39:33.923Z,15.90
2022-10-11T15:42:01.647Z,15.80
2022-10-11T15:44:29.256Z,15.70
2022-10-11T15:46:56.911Z,15.60
2022-10-11T15:49:24.463Z,15.50
2022-10-11T15:51:52.116Z,15.50
2022-10-11T15:54:20.050Z,15.40
2022-10-11T15:56:48.266Z,15.30
2022-10-11T15:59:15.893Z,15.30
2022-10-11T16:01:43.589Z,15.20
2022-10-11T16:04:11.248Z,15.10
2022-10-11T16:06:38.838Z,15.10
2022-10-11T16:09:06.708Z,15.00
2022-10-11T16:11:34.405Z,15.00
2022-10-11T16:14:02.488Z,14.90
2022-10-11T16:16:30.248Z,14.80
2022-10-11T16:18:57.844Z,14.70
2022-10-11T16:21:25.465Z,14.50
2022-10-11T16:23:53.054Z,14.50
2022-10-11T16:26:20.899Z,14.40
2022-10-11T16:28:48.708Z,14.30
2022-10-11T16:31:20.774Z,14.30
2022-10-11T16:33:49.812Z,14.20
2022-10-11T16:36:32.508Z,14.20
2022-10-11T16:39:02.947Z,14.00
2022-10-11T16:41:30.578Z,13.90
2022-10-11T16:43:58.243Z,13.80
2022-10-11T16:46:25.919Z,13.70
2022-10-11T16:48:58.023Z,13.50
2022-10-11T16:51:25.853Z,13.50
2022-10-11T16:53:53.676Z,13.40
2022-10-11T16:56:24.169Z,13.30
2022-10-11T16:58:55.788Z,13.30
2022-10-11T17:01:23.711Z,13.10
2022-10-11T17:03:52.267Z,13.10
2022-10-11T17:06:20.540Z,13.00
2022-10-11T17:08:48.848Z,12.90
2022-10-11T17:11:21.669Z,12.80
2022-10-11T17:13:51.624Z,12.70
2022-10-11T17:16:21.212Z,12.60
2022-10-11T17:18:49.416Z,12.50
2022-10-11T17:21:20.014Z,12.40
2022-10-11T17:23:49.245Z,12.40
2022-10-11T17:26:24.836Z,12.30
2022-10-11T17:28:57.971Z,12.30
2022-10-11T17:31:26.955Z,12.20
2022-10-11T17:33:55.054Z,12.20
2022-10-11T17:36:34.704Z,12.10
2022-10-11T17:39:08.078Z,12.10
2022-10-11T17:41:35.764Z,12.00
2022-10-11T17:44:04.331Z,12.00
2022-10-11T17:46:32.565Z,11.90
2022-10-11T17:49:06.955Z,11.80
2022-10-11T17:51:36.568Z,11.80
2022-10-11T17:54:04.760Z,11.70
2022-10-11T17:56:37.691Z,11.60
2022-10-11T17:59:06.642Z,11.60
2022-10-11T18:01:34.528Z,11.50
2022-10-11T18:04:05.370Z,11.50
2022-10-11T18:06:38.675Z,11.40
2022-10-11T18:09:06.464Z,11.40
2022-10-11T18:11:34.342Z,11.20
2022-10-11T18:14:02.211Z,11.20
2022-10-11T18:16:31.816Z,11.20
2022-10-11T18:18:59.697Z,11.10
2022-10-11T18:21:33.571Z,11.20
2022-10-11T18:24:07.641Z,11.10
2022-10-11T18:26:35.295Z,11.00
2022-10-11T18:29:04.766Z,11.00
2022-10-11T18:31:35.080Z,10.90
2022-10-11T18:34:05.069Z,10.90
2022-10-11T18:36:33.275Z,10.80
2022-10-11T18:39:06.234Z,10.80
2022-10-11T18:41:35.344Z,10.70
2022-10-11T18:44:06.759Z,10.60
2022-10-11T18:46:35.945Z,10.60
2022-10-11T18:49:05.136Z,10.60
2022-10-11T18:51:36.983Z,10.50
2022-10-11T18:54:06.754Z,10.50
2022-10-11T18:56:36.877Z,10.50
2022-10-11T18:59:06.027Z,10.50
2022-10-11T19:01:40.471Z,10.40
2022-10-11T19:04:10.358Z,10.40
2022-10-11T19:06:44.137Z,10.40
2022-10-11T19:09:22.420Z,10.30
2022-10-11T19:11:52.920Z,10.30
2022-10-11T19:14:25.894Z,10.20
2022-10-11T19:16:54.400Z,10.20
2022-10-11T19:19:27.099Z,10.20
2022-10-11T19:21:55.508Z,10.10
2022-10-11T19:24:27.118Z,10.10
2022-10-11T19:27:01.202Z,10.00
2022-10-11T19:29:31.593Z,9.90
2022-10-11T19:32:01.755Z,9.90
2022-10-11T19:34:31.556Z,9.90
2022-10-11T19:37:01.138Z,9.90
2022-10-11T19:39:29.626Z,9.90
2022-10-11T19:41:57.191Z,9.70
2022-10-11T19:44:24.858Z,9.70
2022-10-11T19:46:53.165Z,9.80
2022-10-11T19:49:25.033Z,9.70
2022-10-11T19:51:55.082Z,9.60
2022-10-11T19:54:23.397Z,9.60
2022-10-11T19:56:50.965Z,9.70
2022-10-11T19:59:18.693Z,9.70
2022-10-11T20:01:51.311Z,9.60
2022-10-11T20:07:09.525Z,9.40
2022-10-11T20:09:37.142Z,9.40
2022-10-11T20:12:04.886Z,9.30
2022-10-11T20:14:32.495Z,9.20
2022-10-11T20:17:00.014Z,9.20
2022-10-11T20:19:30.645Z,9.20
2022-10-11T20:22:00.869Z,9.20
2022-10-11T20:24:32.950Z,9.20
2022-10-11T20:27:03.990Z,9.10
2022-10-11T20:29:31.669Z,9.00
2022-10-11T20:31:59.314Z,9.00
2022-10-11T20:34:27.698Z,9.10
2022-10-11T20:36:55.437Z,9.10
2022-10-11T20:39:23.777Z,9.10
2022-10-11T20:41:51.478Z,9.00
2022-10-11T20:44:19.082Z,8.90
2022-10-11T20:46:46.655Z,8.90
2022-10-11T20:49:14.256Z,8.90
2022-10-11T20:51:42.633Z,8.90
2022-10-11T20:54:12.345Z,8.90
2022-10-11T20:56:40.281Z,8.90
2022-10-11T20:59:08.463Z,8.80
2022-10-11T21:01:40.116Z,8.80
2022-10-11T21:04:10.896Z,8.80
2022-10-11T21:06:38.625Z,8.70
2022-10-11T21:09:06.186Z,8.60
2022-10-11T21:11:35.041Z,8.60
2022-10-11T21:14:05.916Z,8.60
2022-10-11T21:16:34.332Z,8.60
2022-10-11T21:19:02.394Z,8.60
2022-10-11T21:21:30.632Z,8.60
2022-10-11T21:24:00.919Z,8.60
2022-10-11T21:26:30.205Z,8.60
2022-10-11T21:29:01.347Z,8.50
2022-10-11T21:31:33.772Z,8.40
2022-10-11T21:34:03.332Z,8.40
2022-10-11T21:36:31.137Z,8.30
2022-10-11T21:38:58.744Z,8.30
2022-10-11T21:41:30.062Z,8.40
2022-10-11T21:43:58.356Z,8.30
2022-10-11T21:49:20.519Z,8.40
2022-10-11T21:51:48.770Z,8.40
2022-10-11T21:54:16.869Z,8.40
2022-10-11T21:56:44.447Z,8.40
2022-10-11T21:59:12.749Z,8.50
2022-10-11T22:01:41.733Z,8.50
2022-10-11T22:04:10.583Z,8.40
2022-10-11T22:06:39.262Z,8.40
2022-10-11T22:09:08.229Z,8.30
2022-10-11T22:11:36.842Z,8.10
2022-10-11T22:14:05.103Z,8.20
2022-10-11T22:16:34.457Z,8.20
2022-10-11T22:19:02.364Z,8.20
2022-10-11T22:21:30.383Z,8.20
2022-10-11T22:23:58.057Z,8.20
2022-10-11T22:26:30.626Z,8.20
2022-10-11T22:29:00.303Z,8.10
2022-10-11T22:31:28.667Z,8.20
2022-10-11T22:33:58.936Z,8.20
2022-10-11T22:36:28.197Z,8.20
2022-10-11T22:38:55.848Z,8.10
2022-10-11T22:41:24.292Z,8.10
2022-10-11T22:43:52.466Z,8.10
2022-10-11T22:46:20.118Z,8.10
2022-10-11T22:48:47.673Z,8.10
2022-10-11T22:51:15.272Z,8.00
2022-10-11T22:53:42.900Z,8.00
2022-10-11T22:56:11.220Z,7.90
2022-10-11T22:58:38.802Z,7.80
2022-10-11T23:01:12.827Z,7.70
2022-10-11T23:03:40.583Z,7.60
2022-10-11T23:06:08.688Z,7.60
2022-10-11T23:08:36.262Z,7.60
2022-10-11T23:11:07.980Z,7.50
2022-10-11T23:13:35.885Z,7.50
2022-10-11T23:16:12.097Z,7.40
2022-10-11T23:18:39.861Z,7.40
2022-10-11T23:21:08.433Z,7.40
2022-10-11T23:23:36.104Z,7.40
2022-10-11T23:26:08.457Z,7.40
2022-10-11T23:28:37.485Z,7.50
2022-10-11T23:31:12.157Z,7.50
2022-10-11T23:33:39.883Z,7.50
2022-10-11T23:36:19.597Z,7.40
2022-10-11T23:38:56.225Z,7.40
2022-10-11T23:41:26.758Z,7.50
2022-10-11T23:43:54.852Z,7.40
2022-10-11T23:46:23.132Z,7.40
2022-10-11T23:48:51.014Z,7.40
2022-10-11T23:51:18.630Z,7.30
2022-10-11T23:53:46.165Z,7.30
2022-10-11T23:56:13.819Z,7.30
2022-10-11T23:58:41.600Z,7.30
